Grandview Heights, Ohio
Current Conditions -  °F | °C
As of 12:53 AM on Saturday 20 Dec 2014 (Local Time) from KOSU Reporting Station
Overcast Overcast  
Wind Chill: -2°   Ceiling: 1800
Heat Index: -2°   Visibility: 10mi
Dew Point: -6°   Wind: 3mph
Humidity: 75%   Direction: 120°ESE
Pressure: 30.25"   Gusts: NA
Location:  39.987°N, 83.0425°W
Report Text: KOSU 200553Z AUTO 12003KT 10SM OVC018 M02/M06 A3025 RMK AO2 SLP253 T10171056 11011 21017 56010
Loading
Personal Weather Stations






























Interactive Weather Map New forecast layout! Learn more

10-Day Weather Forecast

Advertisements
Track Severe Weather on mobile